Time;durP1;ratioP1;P1;durP2;ratioP2;P2;SDS_P1;SDS_P2;PMS_P1;PMS_P2;Temp;Humidity;BMP_temperature;BMP_pressure;BME280_temperature;BME280_humidity;BME280_pressure;Samples;Min_cycle;Max_cycle;Signal;HPM_P1;HPM_P2
2024/04/09 00:01:15;;;;;;;14.43;3.08;;;;;;;-145.69;28.29;51802.78;5528266;25;20229;-78
2024/04/09 00:03:43;;;;;;;22.90;2.63;;;;;;;-145.69;28.02;51832.50;5528567;25;20225;-77
2024/04/09 00:06:14;;;;;;;22.90;3.83;;;;;;;-145.69;27.91;51812.69;5528053;25;20647;-79
2024/04/09 00:08:44;;;;;;;23.13;2.85;;;;;;;-145.69;27.92;51802.78;5528166;25;20557;-78
2024/04/09 00:11:13;;;;;;;15.70;3.33;;;;;;;-145.69;28.06;51798.81;5526862;25;20264;-78
2024/04/09 00:13:41;;;;;;;17.52;2.97;;;;;;;-145.69;27.91;51806.75;5527818;25;20340;-77
2024/04/09 00:16:12;;;;;;;16.35;2.67;;;;;;;-145.69;28.19;51830.50;5527711;25;20293;-78
2024/04/09 00:18:42;;;;;;;15.43;2.63;;;;;;;-145.69;28.84;51826.56;5524744;25;20705;-78
2024/04/09 00:21:08;;;;;;;18.33;2.95;;;;;;;-145.69;29.69;51838.44;5505427;26;20229;-78
2024/04/09 00:23:36;;;;;;;19.70;2.88;;;;;;;-145.69;30.16;51830.50;5527970;25;20325;-78
2024/04/09 00:26:02;;;;;;;15.15;2.45;;;;;;;-145.69;30.06;51830.50;5528044;25;20243;-78
2024/04/09 00:28:30;;;;;;;20.65;3.25;;;;;;;-145.69;31.94;51848.34;5527887;25;20221;-78
2024/04/09 00:30:56;;;;;;;14.13;2.50;;;;;;;-145.69;31.89;51816.66;5527571;25;20730;-77
2024/04/09 00:33:27;;;;;;;13.23;2.47;;;;;;;-145.69;32.19;51844.38;5527385;26;20229;-78
2024/04/09 00:35:53;;;;;;;11.07;2.70;;;;;;;-145.69;32.90;51850.31;5527354;25;20225;-79
2024/04/09 00:38:23;;;;;;;16.27;2.65;;;;;;;-145.69;32.44;51854.28;5528299;25;20263;-78
2024/04/09 00:40:49;;;;;;;13.80;2.20;;;;;;;-145.69;33.03;51858.22;5527137;25;20595;-78
2024/04/09 00:43:17;;;;;;;12.43;2.28;;;;;;;-145.69;33.30;51838.44;5527847;25;20294;-77
2024/04/09 00:45:43;;;;;;;9.60;1.90;;;;;;;-145.69;32.99;51840.41;5527823;25;20222;-77
2024/04/09 00:48:12;;;;;;;18.42;3.03;;;;;;;-145.69;32.80;51826.56;5527452;25;20303;-78
2024/04/09 00:50:41;;;;;;;13.07;3.03;;;;;;;-145.69;32.25;51870.13;5526256;25;20833;-78
2024/04/09 00:53:11;;;;;;;18.13;2.40;;;;;;;-145.69;32.02;51854.28;5527577;25;20226;-77
2024/04/09 00:55:42;;;;;;;24.15;3.35;;;;;;;-145.69;32.95;51840.41;5527654;25;20330;-78
2024/04/09 00:58:12;;;;;;;13.30;1.95;;;;;;;-145.69;33.44;51862.19;5527439;25;20321;-77
2024/04/09 01:00:40;;;;;;;15.65;2.20;;;;;;;-145.69;31.16;51842.38;5527591;25;20275;-77
2024/04/09 01:03:08;;;;;;;25.63;3.00;;;;;;;-145.69;30.23;51850.31;5527525;25;20277;-77
2024/04/09 01:05:33;;;;;;;11.68;2.40;;;;;;;-145.69;29.98;51858.22;5526990;25;20325;-78
2024/04/09 01:08:04;;;;;;;15.90;2.88;;;;;;;-145.69;31.86;51814.66;5527017;25;20708;-79
2024/04/09 01:10:30;;;;;;;14.18;2.75;;;;;;;-145.69;32.63;51856.25;5527174;25;20751;-77
2024/04/09 01:12:58;;;;;;;20.50;2.97;;;;;;;-145.69;31.44;51822.59;5527202;25;20241;-79
2024/04/09 01:15:24;;;;;;;18.05;2.30;;;;;;;-145.69;31.94;51826.56;5527254;25;20272;-79
2024/04/09 01:17:52;;;;;;;23.50;2.47;;;;;;;-145.69;32.09;51838.44;5527032;25;20468;-78
2024/04/09 01:20:18;;;;;;;17.85;3.67;;;;;;;-145.69;31.68;51824.56;5526560;25;20225;-78
2024/04/09 01:22:50;;;;;;;25.52;2.85;;;;;;;-145.69;30.67;51830.50;5526884;25;20264;-79
2024/04/09 01:25:15;;;;;;;20.42;2.42;;;;;;;-145.69;30.88;51858.22;5527037;25;20545;-78
2024/04/09 01:27:43;;;;;;;11.52;2.50;;;;;;;-145.69;30.85;51836.44;5527365;25;20221;-79
2024/04/09 01:30:09;;;;;;;17.00;2.70;;;;;;;-145.69;31.64;51836.44;5526996;25;20851;-78
2024/04/09 01:32:39;;;;;;;27.90;3.03;;;;;;;-145.69;31.04;51838.44;5527077;25;20241;-78
2024/04/09 01:35:06;;;;;;;20.30;3.25;;;;;;;-145.69;30.27;51868.13;5526438;25;20737;-77
2024/04/09 01:37:34;;;;;;;17.02;2.75;;;;;;;-145.69;30.32;51842.38;5527160;26;20317;-78
2024/04/09 01:40:03;;;;;;;23.92;3.70;;;;;;;-145.69;29.46;51836.44;5526768;25;20230;-78
2024/04/09 01:42:32;;;;;;;16.95;2.63;;;;;;;-145.69;29.90;51812.69;5526555;25;20221;-77
2024/04/09 01:44:57;;;;;;;19.95;2.78;;;;;;;-145.69;30.65;51832.50;5526977;25;20241;-77
2024/04/09 01:47:26;;;;;;;16.58;2.33;;;;;;;-145.69;30.37;51854.28;5526735;25;20312;-77
2024/04/09 01:49:52;;;;;;;15.00;3.83;;;;;;;-145.69;32.96;51826.56;5526672;25;20245;-76
2024/04/09 01:52:20;;;;;;;18.33;2.90;;;;;;;-145.69;30.46;51842.38;5526736;25;20541;-76
2024/04/09 01:54:47;;;;;;;18.70;2.50;;;;;;;-145.69;29.92;51846.34;5526105;25;20255;-77
2024/04/09 01:57:17;;;;;;;16.27;3.03;;;;;;;-145.69;28.62;51834.47;5524910;25;20728;-77
2024/04/09 01:59:43;;;;;;;15.07;2.33;;;;;;;-145.69;29.02;51832.50;5525830;25;20259;-77
2024/04/09 02:02:13;;;;;;;14.88;3.40;;;;;;;-145.69;29.63;51870.13;5525997;25;20229;-76
2024/04/09 02:04:39;;;;;;;13.90;2.28;;;;;;;-145.69;30.00;51834.47;5526475;25;20277;-76
2024/04/09 02:07:07;;;;;;;16.35;2.35;;;;;;;-145.69;30.76;51842.38;5526240;25;20233;-76
2024/04/09 02:09:33;;;;;;;14.88;2.67;;;;;;;-145.69;31.19;51862.19;5526393;25;20234;-77
2024/04/09 02:12:01;;;;;;;27.88;2.55;;;;;;;-145.69;31.46;51854.28;5525930;26;20271;-77
2024/04/09 02:14:30;;;;;;;21.75;2.92;;;;;;;-145.69;31.24;51856.25;5526640;25;20821;-78
2024/04/09 02:16:58;;;;;;;10.32;2.75;;;;;;;-145.69;32.12;51852.28;5526015;25;20221;-78
2024/04/09 02:19:24;;;;;;;15.93;2.58;;;;;;;-145.69;32.48;51836.44;5526384;25;20263;-78
2024/04/09 02:21:53;;;;;;;17.65;2.72;;;;;;;-145.69;32.61;51862.19;5526543;25;20333;-78
2024/04/09 02:24:18;;;;;;;7.97;2.20;;;;;;;-145.69;32.58;51838.44;5519782;25;20263;-77
2024/04/09 02:26:47;;;;;;;13.45;2.35;;;;;;;-145.69;32.53;51866.16;5526117;25;20233;-78
2024/04/09 02:29:12;;;;;;;11.02;2.60;;;;;;;-145.69;33.16;51862.19;5525945;25;20218;-77
2024/04/09 02:31:43;;;;;;;11.38;2.63;;;;;;;-145.69;33.84;51856.25;5526295;25;20570;-77
2024/04/09 02:34:09;;;;;;;13.40;2.60;;;;;;;-145.69;33.72;51878.03;5526086;25;20217;-77
2024/04/09 02:36:37;;;;;;;17.50;2.40;;;;;;;-145.69;34.96;51862.19;5525646;25;20225;-77
2024/04/09 02:39:06;;;;;;;8.23;2.60;;;;;;;-145.69;35.07;51878.03;5525996;25;20221;-77
2024/04/09 02:41:35;;;;;;;11.57;2.42;;;;;;;-145.69;35.49;51862.19;5526342;25;20272;-77
2024/04/09 02:44:01;;;;;;;20.70;2.60;;;;;;;-145.69;34.88;51907.72;5526164;25;20747;-77
2024/04/09 02:46:29;;;;;;;15.27;2.45;;;;;;;-145.69;34.76;51858.22;5526063;25;20281;-77
2024/04/09 02:48:57;;;;;;;7.63;2.38;;;;;;;-145.69;34.90;51850.31;5526416;25;20719;-77
2024/04/09 02:51:25;;;;;;;18.27;2.38;;;;;;;-145.69;35.06;51901.78;5525509;25;20229;-78
2024/04/09 02:53:51;;;;;;;14.43;3.00;;;;;;;-145.69;35.00;51905.75;5526009;25;20246;-77
2024/04/09 02:56:19;;;;;;;9.93;1.77;;;;;;;-145.69;35.73;51893.88;5525125;25;20325;-77
2024/04/09 02:58:45;;;;;;;7.70;2.35;;;;;;;-145.69;35.72;51895.84;5525826;25;20293;-77
2024/04/09 03:01:14;;;;;;;16.63;2.88;;;;;;;-145.69;35.64;51895.84;5525869;25;20225;-77
2024/04/09 03:03:40;;;;;;;13.02;2.72;;;;;;;-145.69;35.91;51925.56;5510073;26;20230;-77
2024/04/09 03:06:12;;;;;;;14.68;2.72;;;;;;;-145.69;35.85;51897.84;5525621;25;20718;-78
2024/04/09 03:08:38;;;;;;;20.52;2.80;;;;;;;-145.69;35.51;51883.97;5524961;25;20267;-78
2024/04/09 03:11:12;;;;;;;19.20;2.63;;;;;;;-145.69;34.76;51897.84;5525721;25;20584;-78
2024/04/09 03:13:38;;;;;;;17.70;2.72;;;;;;;-145.69;34.44;51882.00;5524214;25;20571;-78
2024/04/09 03:16:13;;;;;;;17.48;3.28;;;;;;;-145.69;34.90;51917.63;5525151;25;20225;-78
2024/04/09 03:18:39;;;;;;;19.55;2.70;;;;;;;-145.69;34.77;51885.94;5525267;25;20332;-77
2024/04/09 03:21:07;;;;;;;20.42;3.33;;;;;;;-145.69;34.98;51885.94;5525333;25;20241;-77
2024/04/09 03:23:37;;;;;;;24.23;4.07;;;;;;;-145.69;34.87;51889.91;5524016;25;20697;-79
2024/04/09 03:26:06;;;;;;;26.13;3.67;;;;;;;-145.69;34.84;51862.19;5525083;25;20226;-78
2024/04/09 03:28:32;;;;;;;28.00;4.35;;;;;;;-145.69;34.20;51901.78;5525411;25;20226;-79
2024/04/09 03:31:01;;;;;;;27.88;3.90;;;;;;;-145.69;34.68;51874.06;5524386;25;20222;-77
2024/04/09 03:33:27;;;;;;;31.13;4.32;;;;;;;-145.69;34.49;51897.84;5524872;25;20229;-77
2024/04/09 03:35:55;;;;;;;25.85;4.03;;;;;;;-145.69;34.56;51891.88;5524697;25;20234;-77
2024/04/09 03:38:23;;;;;;;25.58;4.20;;;;;;;-145.69;34.59;51882.00;5524860;26;20225;-77
2024/04/09 03:40:57;;;;;;;27.48;3.55;;;;;;;-145.69;34.11;51874.06;5525316;25;20739;-77
2024/04/09 03:43:25;;;;;;;21.65;3.38;;;;;;;-145.69;34.74;51856.25;5524147;25;20264;-77
2024/04/09 03:46:00;;;;;;;16.95;3.25;;;;;;;-145.69;34.73;51866.16;5524458;25;20229;-77
2024/04/09 03:48:28;;;;;;;21.92;3.40;;;;;;;-145.69;35.03;51874.06;5524300;25;20325;-77
2024/04/09 03:50:53;;;;;;;20.15;3.88;;;;;;;-145.69;35.29;51882.00;5524745;25;20272;-77
2024/04/09 03:53:21;;;;;;;16.55;2.92;;;;;;;-145.69;35.57;51897.84;5524525;25;20229;-78
2024/04/09 03:55:55;;;;;;;34.28;4.07;;;;;;;-145.69;35.48;51889.91;5524809;25;20228;-78
2024/04/09 03:58:23;;;;;;;22.98;4.05;;;;;;;-145.69;35.62;51893.88;5525188;25;20226;-77
2024/04/09 04:00:54;;;;;;;29.02;4.13;;;;;;;-145.69;35.55;51885.94;5524869;25;20700;-77
2024/04/09 04:03:22;;;;;;;19.48;3.03;;;;;;;-145.69;35.86;51913.69;5524249;25;20233;-78
2024/04/09 04:05:50;;;;;;;24.98;4.32;;;;;;;-145.69;36.09;51862.19;5524794;25;20341;-77
2024/04/09 04:08:18;;;;;;;21.58;2.90;;;;;;;-145.69;36.44;51913.69;5524013;25;20233;-78
2024/04/09 04:10:51;;;;;;;21.17;3.33;;;;;;;-145.69;37.25;51880.00;5524408;25;20320;-78
2024/04/09 04:13:23;;;;;;;40.38;5.25;;;;;;;-145.69;37.49;51893.88;5524252;25;20233;-77
2024/04/09 04:15:57;;;;;;;20.85;3.35;;;;;;;-145.69;37.45;51862.19;5523640;25;20259;-77
2024/04/09 04:18:31;;;;;;;29.85;4.40;;;;;;;-145.69;37.31;51899.81;5524341;25;20242;-77
2024/04/09 04:20:57;;;;;;;32.67;4.60;;;;;;;-145.69;37.26;51913.69;5523400;25;20284;-78
2024/04/09 04:23:25;;;;;;;18.77;4.05;;;;;;;-145.69;37.38;51862.19;5523377;25;20225;-77
2024/04/09 04:26:02;;;;;;;21.23;3.83;;;;;;;-145.69;37.21;51899.81;5526730;25;20271;-77
2024/04/09 04:28:34;;;;;;;21.90;3.63;;;;;;;-145.69;37.43;51909.72;5528010;25;20229;-77
2024/04/09 04:31:00;;;;;;;20.80;2.85;;;;;;;-145.69;38.17;51897.84;5527784;25;20272;-76
2024/04/09 04:33:29;;;;;;;17.88;3.05;;;;;;;-145.69;37.77;51882.00;5521678;25;20242;-77
2024/04/09 04:35:55;;;;;;;21.70;3.85;;;;;;;-145.69;38.69;51893.88;5527718;25;20724;-76
2024/04/09 04:38:24;;;;;;;20.50;3.45;;;;;;;-145.69;38.21;51882.00;5528147;25;20725;-77
2024/04/09 04:40:49;;;;;;;22.27;3.85;;;;;;;-145.69;38.66;51872.09;5527445;25;20226;-77
2024/04/09 04:43:18;;;;;;;26.90;3.63;;;;;;;-145.69;37.01;51909.72;5526363;25;20229;-77
2024/04/09 04:45:47;;;;;;;22.42;3.03;;;;;;;-145.69;37.08;51907.72;5527395;25;20221;-79
2024/04/09 04:48:16;;;;;;;17.63;3.28;;;;;;;-145.69;37.58;51911.69;5490753;26;20322;-78
2024/04/09 04:50:42;;;;;;;23.50;3.40;;;;;;;-145.69;37.58;51893.88;5503547;26;20596;-78
2024/04/09 04:53:10;;;;;;;20.08;3.60;;;;;;;-145.69;37.28;51882.00;5527690;25;20603;-78
2024/04/09 04:55:36;;;;;;;28.13;3.22;;;;;;;-145.69;37.85;51885.94;5527700;25;20268;-77
2024/04/09 04:58:09;;;;;;;25.85;3.05;;;;;;;-145.69;37.11;51889.91;5527699;26;20229;-77
2024/04/09 05:00:36;;;;;;;27.73;3.28;;;;;;;-145.69;37.34;51907.72;5526836;25;20229;-77
2024/04/09 05:03:06;;;;;;;23.08;3.40;;;;;;;-145.69;37.21;51887.94;5527769;25;20288;-77
2024/04/09 05:05:32;;;;;;;26.23;3.40;;;;;;;-145.69;36.10;51909.72;5527141;25;20225;-77
2024/04/09 05:08:01;;;;;;;15.40;3.03;;;;;;;-145.69;36.18;51885.94;5526704;25;20229;-78
2024/04/09 05:10:27;;;;;;;20.70;3.50;;;;;;;-145.69;36.52;51883.97;5527671;25;20233;-77
2024/04/09 05:12:57;;;;;;;24.98;2.70;;;;;;;-145.69;36.12;51870.13;5527273;25;20225;-78
2024/04/09 05:15:23;;;;;;;18.95;2.80;;;;;;;-145.69;35.93;51878.03;5527454;25;20218;-77
2024/04/09 05:17:52;;;;;;;21.25;2.70;;;;;;;-145.69;36.11;51889.91;5526705;25;20233;-77
2024/04/09 05:20:25;;;;;;;14.07;2.83;;;;;;;-145.69;35.58;51880.00;5526793;25;20221;-78
2024/04/09 05:22:56;;;;;;;25.40;3.03;;;;;;;-145.69;35.31;51889.91;5526984;25;20257;-78
2024/04/09 05:25:26;;;;;;;19.73;3.47;;;;;;;-145.69;35.12;51868.13;5527886;25;20229;-77
2024/04/09 05:27:55;;;;;;;25.38;2.90;;;;;;;-145.69;35.00;51887.94;5526950;25;20237;-78
2024/04/09 05:30:20;;;;;;;24.65;3.28;;;;;;;-145.69;34.73;51872.09;5527339;25;20264;-78
2024/04/09 05:32:48;;;;;;;20.38;3.90;;;;;;;-145.69;34.76;51882.00;5527042;25;20225;-78
2024/04/09 05:35:14;;;;;;;25.98;3.80;;;;;;;-145.69;34.82;51882.00;5526086;26;20317;-79
2024/04/09 05:37:45;;;;;;;19.83;2.83;;;;;;;-145.69;34.85;51862.19;5526132;25;20241;-78
2024/04/09 05:40:10;;;;;;;30.42;3.70;;;;;;;-145.69;34.77;51889.91;5527211;25;20329;-78
2024/04/09 05:42:43;;;;;;;20.63;3.10;;;;;;;-145.69;34.97;51889.91;5526656;25;20581;-77
2024/04/09 05:45:12;;;;;;;21.98;3.45;;;;;;;-145.69;35.05;51870.13;5527043;25;20259;-77
2024/04/09 05:47:40;;;;;;;19.35;2.78;;;;;;;-145.69;35.56;51872.09;5525672;25;20226;-78
2024/04/09 05:50:07;;;;;;;33.50;3.95;;;;;;;-145.69;35.36;51852.28;5526578;25;20285;-77
2024/04/09 05:52:36;;;;;;;23.13;2.70;;;;;;;-145.69;35.50;51883.97;5526279;25;20222;-78
2024/04/09 05:55:05;;;;;;;19.35;3.03;;;;;;;-145.69;35.17;51885.94;5526317;25;20217;-78
2024/04/09 05:57:36;;;;;;;23.65;3.38;;;;;;;-145.69;35.43;51864.16;5526381;25;20290;-77
2024/04/09 06:00:05;;;;;;;19.05;2.63;;;;;;;-145.69;35.31;51856.25;5526475;25;20736;-77
2024/04/09 06:02:36;;;;;;;24.38;3.17;;;;;;;-145.69;35.18;51883.97;5526455;25;20272;-78
2024/04/09 06:05:02;;;;;;;21.25;3.72;;;;;;;-145.69;35.34;51866.16;5526684;25;20319;-77
2024/04/09 06:07:30;;;;;;;24.48;3.03;;;;;;;-145.69;35.83;51864.16;5526540;25;20225;-78
2024/04/09 06:09:56;;;;;;;14.65;2.85;;;;;;;-145.69;36.02;51854.28;5526718;25;20711;-80
2024/04/09 06:12:27;;;;;;;21.77;3.20;;;;;;;-145.69;36.44;51889.91;5526928;25;20229;-77
2024/04/09 06:14:56;;;;;;;26.75;3.67;;;;;;;-145.69;36.97;51854.28;5526569;25;20222;-77
2024/04/09 06:17:24;;;;;;;21.73;3.47;;;;;;;-145.69;37.34;51856.25;5526009;25;20272;-77
2024/04/09 06:19:49;;;;;;;28.40;3.80;;;;;;;-145.69;37.81;51870.13;5488337;26;20446;-77
2024/04/09 06:22:18;;;;;;;17.55;3.30;;;;;;;-145.69;37.68;51866.16;5489709;26;20709;-77
2024/04/09 06:24:46;;;;;;;16.02;2.55;;;;;;;-145.69;37.42;51848.34;5521062;25;20293;-77
2024/04/09 06:27:14;;;;;;;22.73;3.28;;;;;;;-145.69;37.24;51893.88;5526504;25;20252;-78
2024/04/09 06:29:43;;;;;;;32.72;3.28;;;;;;;-145.69;37.30;51872.09;5526518;25;20281;-79
2024/04/09 06:32:11;;;;;;;23.38;3.20;;;;;;;-145.69;37.42;51860.22;5525987;25;20739;-78
2024/04/09 06:34:36;;;;;;;18.45;2.55;;;;;;;-145.69;37.64;51858.22;5526231;25;20248;-78
2024/04/09 06:37:05;;;;;;;13.00;2.45;;;;;;;-145.69;37.84;51822.59;5526014;25;20222;-77
2024/04/09 06:39:30;;;;;;;23.45;3.72;;;;;;;-145.69;37.77;51846.34;5519947;25;20312;-77
2024/04/09 06:42:02;;;;;;;17.80;2.75;;;;;;;-145.69;37.83;51880.00;5524882;25;20230;-77
2024/04/09 06:44:28;;;;;;;16.02;3.22;;;;;;;-145.69;37.59;51856.25;5525159;25;20264;-77
2024/04/09 06:46:59;;;;;;;20.15;3.90;;;;;;;-145.69;38.17;51862.19;5524807;25;20237;-76
2024/04/09 06:49:25;;;;;;;20.10;2.80;;;;;;;-145.69;37.63;51885.94;5525867;25;20328;-77
2024/04/09 06:51:53;;;;;;;23.27;3.22;;;;;;;-145.69;38.09;51838.44;5525722;25;20222;-78
2024/04/09 06:54:18;;;;;;;22.45;3.50;;;;;;;-145.69;38.36;51856.25;5526121;25;20325;-79
2024/04/09 06:56:46;;;;;;;24.10;3.67;;;;;;;-145.69;38.51;51866.16;5525685;25;20237;-78
2024/04/09 06:59:12;;;;;;;20.73;2.85;;;;;;;-145.69;38.52;51870.13;5525359;25;20222;-80
2024/04/09 07:01:40;;;;;;;26.80;4.05;;;;;;;-145.69;38.34;51866.16;5525391;25;20230;-78
2024/04/09 07:04:08;;;;;;;21.50;3.63;;;;;;;-145.69;39.04;51876.06;5522925;25;20576;-78
2024/04/09 07:06:37;;;;;;;17.38;3.40;;;;;;;-145.69;38.61;51866.16;5525075;25;20569;-77
2024/04/09 07:09:04;;;;;;;24.73;3.55;;;;;;;-145.69;38.39;51828.53;5525586;25;20221;-77
2024/04/09 07:11:32;;;;;;;20.15;3.20;;;;;;;-145.69;38.73;51854.28;5524516;25;20260;-78
2024/04/09 07:13:57;;;;;;;22.55;2.95;;;;;;;-145.69;38.10;51878.03;5525415;25;20556;-79
2024/04/09 07:16:26;;;;;;;25.33;3.22;;;;;;;-145.69;38.37;51852.28;5525381;26;20656;-78
2024/04/09 07:18:51;;;;;;;27.38;3.08;;;;;;;-145.69;38.29;51870.13;5525743;26;20225;-78
2024/04/09 07:21:22;;;;;;;19.05;3.08;;;;;;;-145.69;38.58;51862.19;5524762;26;20267;-77
2024/04/09 07:23:49;;;;;;;23.73;3.70;;;;;;;-145.69;39.05;51850.31;5525493;25;20217;-78
2024/04/09 07:26:17;;;;;;;26.45;3.10;;;;;;;-145.69;38.86;51850.31;5525522;25;20221;-77
2024/04/09 07:28:42;;;;;;;23.83;3.00;;;;;;;-145.69;38.96;51856.25;5525687;25;20697;-77
2024/04/09 07:31:11;;;;;;;21.30;2.90;;;;;;;-145.69;39.07;51846.34;5524909;25;20333;-78
2024/04/09 07:33:36;;;;;;;26.27;3.13;;;;;;;-145.69;38.80;51878.03;5525037;25;20708;-78
2024/04/09 07:36:06;;;;;;;17.38;2.85;;;;;;;-145.69;38.85;51842.38;5525016;25;20225;-79
2024/04/09 07:38:34;;;;;;;23.25;2.63;;;;;;;-145.69;39.19;51862.19;5524743;25;20264;-78
2024/04/09 07:41:02;;;;;;;20.38;2.95;;;;;;;-145.69;39.29;51860.22;5523793;25;20260;-79
2024/04/09 07:43:30;;;;;;;23.73;3.20;;;;;;;-145.69;39.50;51880.00;5524818;25;20229;-78
2024/04/09 07:45:58;;;;;;;24.00;3.60;;;;;;;-145.69;40.29;51872.09;5523834;26;20293;-79
2024/04/09 07:48:24;;;;;;;17.98;3.20;;;;;;;-145.69;40.97;51858.22;5522939;25;20356;-79
2024/04/09 07:50:53;;;;;;;25.25;2.90;;;;;;;-145.69;41.31;51870.13;5524305;26;20221;-79
2024/04/09 07:53:19;;;;;;;19.60;2.33;;;;;;;-145.69;41.11;51880.00;5523952;25;20342;-78
2024/04/09 07:55:50;;;;;;;15.23;2.90;;;;;;;-145.69;42.28;51883.97;5524273;25;20643;-77
2024/04/09 07:58:16;;;;;;;21.48;3.10;;;;;;;-145.69;43.07;51893.88;5524419;25;20897;-79
2024/04/09 08:00:45;;;;;;;15.23;2.78;;;;;;;-145.69;43.67;51889.91;5528080;25;20229;-79
2024/04/09 08:03:11;;;;;;;14.15;2.40;;;;;;;-145.69;45.12;51882.00;5528562;25;20260;-78
2024/04/09 08:05:39;;;;;;;14.40;2.00;;;;;;;-145.69;46.82;51899.81;5528464;25;20225;-78
2024/04/09 08:08:05;;;;;;;13.88;1.80;;;;;;;-145.69;47.62;51927.53;5528138;26;20267;-81
2024/04/09 08:10:34;;;;;;;12.60;2.13;;;;;;;-145.69;48.45;51921.59;5528493;25;20226;-78
2024/04/09 08:13:03;;;;;;;4.40;0.93;;;;;;;-145.69;48.54;51917.63;5528300;25;20229;-83
2024/04/09 08:15:33;;;;;;;3.40;0.90;;;;;;;-145.69;49.10;51897.84;5528089;26;20252;-81
2024/04/09 08:17:58;;;;;;;5.85;1.15;;;;;;;-145.69;50.14;51919.63;5526924;25;20233;-82
2024/04/09 08:20:26;;;;;;;3.72;0.93;;;;;;;-145.69;49.88;51933.47;5528219;25;20272;-81
2024/04/09 08:22:52;;;;;;;1.73;0.60;;;;;;;-145.69;49.46;51949.31;5524717;26;20621;-80
2024/04/09 08:25:21;;;;;;;3.13;0.60;;;;;;;-145.69;49.50;51903.78;5527894;26;20560;-79
2024/04/09 08:27:47;;;;;;;1.05;0.55;;;;;;;-145.69;50.46;51933.47;5527422;26;20229;-82
2024/04/09 08:30:23;;;;;;;2.13;0.50;;;;;;;-145.69;50.96;51943.38;5521906;25;20259;-77
2024/04/09 08:32:50;;;;;;;4.60;0.68;;;;;;;-145.69;52.29;51949.31;5527336;25;20230;-81
2024/04/09 08:35:18;;;;;;;2.40;0.50;;;;;;;-145.69;53.87;51965.16;5527402;25;20272;-78
2024/04/09 08:37:45;;;;;;;3.80;0.47;;;;;;;-145.69;55.58;51990.91;5527476;26;20700;-79
2024/04/09 08:40:13;;;;;;;1.30;0.40;;;;;;;-145.69;57.44;51963.19;5527984;25;20267;-77
2024/04/09 08:42:40;;;;;;;0.50;0.50;;;;;;;-145.69;57.52;51963.19;5527499;25;20226;-79
2024/04/09 08:45:14;;;;;;;3.23;0.50;;;;;;;-145.69;57.64;51990.91;5527552;25;20241;-78
2024/04/09 08:47:43;;;;;;;1.23;0.60;;;;;;;-145.69;57.10;51998.81;5527884;25;20716;-78
2024/04/09 08:50:15;;;;;;;1.10;0.57;;;;;;;-145.69;56.92;51933.47;5527229;25;20225;-82
2024/04/09 08:52:41;;;;;;;0.53;0.43;;;;;;;-145.69;57.97;51937.44;5527086;25;20656;-77
2024/04/09 08:55:10;;;;;;;0.30;0.30;;;;;;;-145.69;56.74;51941.41;5527144;26;20294;-77
2024/04/09 08:57:36;;;;;;;1.37;0.33;;;;;;;-145.69;56.99;51957.25;5528035;25;20221;-77
2024/04/09 09:00:05;;;;;;;2.10;0.50;;;;;;;-145.69;56.69;51961.19;5526727;25;20605;-80
2024/04/09 09:02:30;;;;;;;2.93;0.50;;;;;;;-145.69;56.21;51975.06;5527535;25;20318;-78
2024/04/09 09:05:01;;;;;;;2.07;0.40;;;;;;;-145.69;56.02;51957.25;5526760;25;20230;-78
2024/04/09 09:07:27;;;;;;;0.60;0.50;;;;;;;-145.69;56.08;51975.06;5527413;25;20237;-78
2024/04/09 09:10:02;;;;;;;1.20;0.40;;;;;;;-145.69;55.01;51973.06;5525633;25;20230;-77
2024/04/09 09:12:28;;;;;;;0.70;0.60;;;;;;;-145.69;54.89;51965.16;5526407;25;20799;-80
2024/04/09 09:15:00;;;;;;;1.33;0.60;;;;;;;-145.69;54.61;51988.91;5527062;25;20241;-76
2024/04/09 09:17:29;;;;;;;0.40;0.40;;;;;;;-145.69;54.03;51973.06;5521840;25;20234;-77
2024/04/09 09:20:09;;;;;;;0.30;0.30;;;;;;;-145.69;53.42;51963.19;5526509;25;20234;-76
2024/04/09 09:22:42;;;;;;;3.40;0.40;;;;;;;-145.69;51.77;51975.06;5522038;26;20760;-76
2024/04/09 09:25:15;;;;;;;0.30;0.30;;;;;;;-145.69;51.39;51961.19;5525298;25;20229;-78
2024/04/09 09:27:43;;;;;;;0.33;0.30;;;;;;;-145.69;51.66;51996.84;5525391;25;20240;-78
2024/04/09 09:30:12;;;;;;;0.33;0.33;;;;;;;-145.69;50.64;51949.31;5526570;25;20720;-78
2024/04/09 09:32:44;;;;;;;1.80;0.40;;;;;;;-145.69;49.09;51953.28;5526738;25;20262;-77
2024/04/09 09:35:18;;;;;;;0.40;0.40;;;;;;;-145.69;48.43;51921.59;5527090;25;20612;-77
2024/04/09 09:37:47;;;;;;;2.53;0.43;;;;;;;-145.69;47.40;51947.34;5526646;25;20342;-77
2024/04/09 09:40:17;;;;;;;0.22;0.22;;;;;;;-145.69;47.20;51957.25;5525765;25;20276;-79
2024/04/09 09:42:43;;;;;;;0.20;0.20;;;;;;;-145.69;46.10;51933.47;5524559;25;20833;-78
2024/04/09 09:45:12;;;;;;;0.30;0.30;;;;;;;-145.69;46.63;51923.56;5526559;26;20225;-77
2024/04/09 09:47:39;;;;;;;3.03;0.40;;;;;;;-145.69;47.20;51984.97;5525737;25;20616;-78
2024/04/09 09:50:11;;;;;;;0.30;0.30;;;;;;;-145.69;47.89;51941.41;5526194;26;20712;-78
2024/04/09 09:52:41;;;;;;;0.35;0.35;;;;;;;-145.69;48.57;51981.00;5525850;26;20537;-76
2024/04/09 09:55:10;;;;;;;0.50;0.30;;;;;;;-145.69;48.95;51965.16;5526956;25;20221;-77
2024/04/09 09:57:40;;;;;;;0.30;0.30;;;;;;;-145.69;48.44;51998.81;5526645;25;20577;-77
2024/04/09 10:00:12;;;;;;;1.05;0.40;;;;;;;-145.69;48.30;51994.88;5526618;26;20221;-79
2024/04/09 10:02:41;;;;;;;0.30;0.30;;;;;;;-145.69;48.68;51965.16;5525275;25;20259;-77
2024/04/09 10:05:10;;;;;;;1.90;0.38;;;;;;;-145.69;48.81;51979.03;5526501;25;20541;-77
2024/04/09 10:07:39;;;;;;;1.42;0.30;;;;;;;-145.69;49.35;51961.19;5524425;25;20225;-76
2024/04/09 10:10:08;;;;;;;0.50;0.50;;;;;;;-145.69;48.96;51981.00;5518687;25;20270;-76
2024/04/09 10:12:35;;;;;;;0.30;0.30;;;;;;;-145.69;49.27;51969.13;5534186;25;20237;-76
2024/04/09 10:15:05;;;;;;;1.05;0.38;;;;;;;-145.69;49.13;51957.25;5526438;25;20233;-76
2024/04/09 10:17:48;;;;;;;1.23;0.30;;;;;;;-145.69;49.84;51984.97;5555920;25;20229;-77
2024/04/09 10:20:20;;;;;;;1.60;0.40;;;;;;;-145.69;51.09;51973.06;5524418;25;20271;-77
2024/04/09 10:22:51;;;;;;;0.40;0.40;;;;;;;-145.69;51.07;51957.25;5560748;25;20259;-76
2024/04/09 10:25:20;;;;;;;0.60;0.40;;;;;;;-145.69;53.88;51981.00;5563511;25;20255;-76
2024/04/09 10:27:46;;;;;;;0.40;0.40;;;;;;;-145.69;53.86;51961.19;5533188;25;20788;-79
2024/04/09 10:30:17;;;;;;;0.60;0.30;;;;;;;-145.69;55.51;51981.00;5543097;25;20232;-76
2024/04/09 10:32:55;;;;;;;0.40;0.40;;;;;;;-145.69;55.32;51988.91;5535313;25;20330;-76
2024/04/09 10:35:23;;;;;;;0.90;0.70;;;;;;;-145.69;55.92;51984.97;5489193;25;20635;-76
2024/04/09 10:37:52;;;;;;;1.10;0.60;;;;;;;-145.69;56.98;51965.16;5560253;25;20239;-78
2024/04/09 10:40:21;;;;;;;6.07;0.70;;;;;;;-145.69;56.98;51945.34;5524811;25;20321;-78
2024/04/09 10:42:47;;;;;;;3.30;0.83;;;;;;;-145.69;56.85;51992.88;5525624;25;20248;-78
2024/04/09 10:45:16;;;;;;;0.50;0.50;;;;;;;-145.69;56.40;51981.00;5527595;25;20255;-78
2024/04/09 10:47:44;;;;;;;3.90;0.60;;;;;;;-145.69;57.85;51977.03;5563334;25;20633;-78
2024/04/09 10:50:13;;;;;;;0.60;0.60;;;;;;;-145.69;59.16;51984.97;5563251;25;20620;-78
2024/04/09 10:52:39;;;;;;;4.17;0.70;;;;;;;-145.69;60.64;51973.06;5541283;25;20237;-77
2024/04/09 10:55:15;;;;;;;5.87;0.70;;;;;;;-145.69;61.79;51988.91;5525181;25;20225;-78
2024/04/09 10:57:44;;;;;;;3.93;1.10;;;;;;;-145.69;63.19;51996.84;5536752;25;20326;-77
2024/04/09 11:00:11;;;;;;;0.37;0.37;;;;;;;-145.69;63.29;51977.03;5549655;25;20230;-80
2024/04/09 11:02:41;;;;;;;0.40;0.40;;;;;;;-145.69;63.86;51969.13;5525222;25;20260;-78
2024/04/09 11:05:09;;;;;;;0.40;0.40;;;;;;;-145.69;64.04;52004.75;5529446;25;20354;-78
2024/04/09 11:07:38;;;;;;;0.30;0.30;;;;;;;-145.69;63.27;51984.97;5557128;25;20325;-77
2024/04/09 11:10:06;;;;;;;0.40;0.40;;;;;;;-145.69;63.54;51977.03;5525537;25;20221;-77
2024/04/09 11:12:38;;;;;;;3.13;0.40;;;;;;;-145.69;63.32;52008.72;5532535;25;20229;-77
2024/04/09 11:15:05;;;;;;;0.77;0.53;;;;;;;-145.69;62.37;52024.56;5527411;25;20538;-78
2024/04/09 11:17:34;;;;;;;0.40;0.40;;;;;;;-145.69;60.66;51986.94;5557340;25;20280;-77